MSP weather

Minneapolis-St Paul International/Wold-Chamberlain Airport
Minneapolis, Minnesota, United States

Public forecast

Using degrees Fahrenheit for public forecast. Weather courtesy of forecast.io.

METAR (pilot weather report)

Retrieved 2018/04/24 19:53 UTC (28 minutes ago):

KMSP 241953Z 01016KT 10SM FEW060 SCT110 SCT140 BKN250 18/01 A3016 RMK AO2 SLP213 T01780006

TAF (pilot weather forecast)

Retrieved 2018/04/24 18:28 UTC (2 hours ago):

TAF KMSP 241726Z 2418/2524 01014G22KT P6SM SCT060 BKN090 FM250200 01006KT P6SM FEW250 FM251800 29004KT P6SM SKC